sensor_id;sensor_type;location;lat;lon;timestamp;P1;durP1;ratioP1;P2;durP2;ratioP2
286;SDS011;127;48.770;9.212;2022-08-21T00:02:25;4.90;;;2.20;;
286;SDS011;127;48.770;9.212;2022-08-21T00:04:58;8.20;;;2.97;;
286;SDS011;127;48.770;9.212;2022-08-21T00:07:28;5.40;;;2.50;;
286;SDS011;127;48.770;9.212;2022-08-21T00:09:57;4.93;;;2.23;;
286;SDS011;127;48.770;9.212;2022-08-21T00:12:27;5.30;;;2.47;;
286;SDS011;127;48.770;9.212;2022-08-21T00:14:56;8.20;;;2.57;;
286;SDS011;127;48.770;9.212;2022-08-21T00:17:28;4.83;;;2.67;;
286;SDS011;127;48.770;9.212;2022-08-21T00:20:00;5.07;;;2.30;;
286;SDS011;127;48.770;9.212;2022-08-21T00:22:31;6.10;;;2.80;;
286;SDS011;127;48.770;9.212;2022-08-21T00:25:01;12.33;;;2.10;;
286;SDS011;127;48.770;9.212;2022-08-21T00:27:31;4.50;;;2.37;;
286;SDS011;127;48.770;9.212;2022-08-21T00:30:00;3.83;;;2.67;;
286;SDS011;127;48.770;9.212;2022-08-21T00:32:29;5.63;;;2.50;;
286;SDS011;127;48.770;9.212;2022-08-21T00:35:04;5.50;;;2.70;;
286;SDS011;127;48.770;9.212;2022-08-21T00:37:36;6.70;;;3.10;;
286;SDS011;127;48.770;9.212;2022-08-21T00:40:06;7.30;;;2.70;;
286;SDS011;127;48.770;9.212;2022-08-21T00:42:37;4.57;;;2.53;;
286;SDS011;127;48.770;9.212;2022-08-21T00:45:09;8.57;;;3.30;;
286;SDS011;127;48.770;9.212;2022-08-21T00:47:38;3.97;;;2.30;;
286;SDS011;127;48.770;9.212;2022-08-21T00:50:11;5.20;;;2.53;;
286;SDS011;127;48.770;9.212;2022-08-21T00:52:40;7.83;;;2.83;;
286;SDS011;127;48.770;9.212;2022-08-21T00:55:13;6.83;;;2.70;;
286;SDS011;127;48.770;9.212;2022-08-21T00:57:42;5.00;;;2.40;;
286;SDS011;127;48.770;9.212;2022-08-21T01:00:16;5.10;;;3.03;;
286;SDS011;127;48.770;9.212;2022-08-21T01:02:51;8.77;;;3.00;;
286;SDS011;127;48.770;9.212;2022-08-21T01:05:23;7.50;;;2.77;;
286;SDS011;127;48.770;9.212;2022-08-21T01:07:53;13.80;;;3.00;;
286;SDS011;127;48.770;9.212;2022-08-21T01:10:22;6.93;;;2.90;;
286;SDS011;127;48.770;9.212;2022-08-21T01:12:53;7.73;;;3.23;;
286;SDS011;127;48.770;9.212;2022-08-21T01:15:24;4.73;;;2.70;;
286;SDS011;127;48.770;9.212;2022-08-21T01:17:59;6.33;;;3.27;;
286;SDS011;127;48.770;9.212;2022-08-21T01:20:31;4.00;;;2.70;;
286;SDS011;127;48.770;9.212;2022-08-21T01:23:04;7.07;;;3.33;;
286;SDS011;127;48.770;9.212;2022-08-21T01:25:33;5.80;;;2.47;;
286;SDS011;127;48.770;9.212;2022-08-21T01:28:04;6.33;;;2.90;;
286;SDS011;127;48.770;9.212;2022-08-21T01:30:39;5.30;;;3.17;;
286;SDS011;127;48.770;9.212;2022-08-21T01:33:11;5.60;;;2.70;;
286;SDS011;127;48.770;9.212;2022-08-21T01:35:40;14.40;;;3.13;;
286;SDS011;127;48.770;9.212;2022-08-21T01:38:11;11.60;;;2.93;;
286;SDS011;127;48.770;9.212;2022-08-21T01:40:40;6.77;;;2.90;;
286;SDS011;127;48.770;9.212;2022-08-21T01:43:09;7.13;;;3.00;;
286;SDS011;127;48.770;9.212;2022-08-21T01:45:37;5.83;;;3.07;;
286;SDS011;127;48.770;9.212;2022-08-21T01:48:06;5.93;;;3.30;;
286;SDS011;127;48.770;9.212;2022-08-21T01:50:35;7.33;;;3.40;;
286;SDS011;127;48.770;9.212;2022-08-21T01:53:04;8.47;;;3.60;;
286;SDS011;127;48.770;9.212;2022-08-21T01:55:35;4.83;;;3.23;;
286;SDS011;127;48.770;9.212;2022-08-21T01:58:04;5.47;;;2.83;;
286;SDS011;127;48.770;9.212;2022-08-21T02:00:32;10.63;;;3.70;;
286;SDS011;127;48.770;9.212;2022-08-21T02:03:01;6.87;;;3.27;;
286;SDS011;127;48.770;9.212;2022-08-21T02:05:30;6.70;;;3.50;;
286;SDS011;127;48.770;9.212;2022-08-21T02:07:59;9.37;;;3.50;;
286;SDS011;127;48.770;9.212;2022-08-21T02:10:29;8.67;;;3.53;;
286;SDS011;127;48.770;9.212;2022-08-21T02:13:01;6.20;;;3.00;;
286;SDS011;127;48.770;9.212;2022-08-21T02:15:30;8.03;;;3.27;;
286;SDS011;127;48.770;9.212;2022-08-21T02:18:00;9.33;;;3.23;;
286;SDS011;127;48.770;9.212;2022-08-21T02:20:31;7.57;;;3.27;;
286;SDS011;127;48.770;9.212;2022-08-21T02:23:02;8.57;;;3.80;;
286;SDS011;127;48.770;9.212;2022-08-21T02:25:31;6.33;;;3.90;;
286;SDS011;127;48.770;9.212;2022-08-21T02:28:05;10.90;;;3.93;;
286;SDS011;127;48.770;9.212;2022-08-21T02:30:36;6.67;;;3.60;;
286;SDS011;127;48.770;9.212;2022-08-21T02:33:07;4.13;;;2.90;;
286;SDS011;127;48.770;9.212;2022-08-21T02:35:37;6.90;;;3.93;;
286;SDS011;127;48.770;9.212;2022-08-21T02:38:09;5.63;;;3.80;;
286;SDS011;127;48.770;9.212;2022-08-21T02:40:39;9.93;;;3.97;;
286;SDS011;127;48.770;9.212;2022-08-21T02:43:13;12.43;;;3.67;;
286;SDS011;127;48.770;9.212;2022-08-21T02:45:43;9.10;;;4.30;;
286;SDS011;127;48.770;9.212;2022-08-21T02:48:13;9.13;;;3.60;;
286;SDS011;127;48.770;9.212;2022-08-21T02:50:44;9.70;;;3.47;;
286;SDS011;127;48.770;9.212;2022-08-21T02:53:15;8.00;;;3.80;;
286;SDS011;127;48.770;9.212;2022-08-21T02:55:45;4.97;;;3.33;;
286;SDS011;127;48.770;9.212;2022-08-21T02:58:19;4.77;;;3.50;;
286;SDS011;127;48.770;9.212;2022-08-21T03:00:53;5.60;;;3.70;;
286;SDS011;127;48.770;9.212;2022-08-21T03:03:21;8.47;;;4.57;;
286;SDS011;127;48.770;9.212;2022-08-21T03:05:53;11.77;;;3.83;;
286;SDS011;127;48.770;9.212;2022-08-21T03:08:24;7.47;;;3.97;;
286;SDS011;127;48.770;9.212;2022-08-21T03:10:53;8.93;;;3.57;;
286;SDS011;127;48.770;9.212;2022-08-21T03:13:24;7.17;;;4.10;;
286;SDS011;127;48.770;9.212;2022-08-21T03:15:53;4.50;;;3.80;;
286;SDS011;127;48.770;9.212;2022-08-21T03:18:26;11.97;;;4.10;;
286;SDS011;127;48.770;9.212;2022-08-21T03:20:58;7.87;;;3.40;;
286;SDS011;127;48.770;9.212;2022-08-21T03:23:27;10.40;;;3.77;;
286;SDS011;127;48.770;9.212;2022-08-21T03:25:56;9.60;;;3.83;;
286;SDS011;127;48.770;9.212;2022-08-21T03:28:28;5.90;;;4.07;;
286;SDS011;127;48.770;9.212;2022-08-21T03:30:57;10.90;;;4.23;;
286;SDS011;127;48.770;9.212;2022-08-21T03:33:26;9.03;;;3.83;;
286;SDS011;127;48.770;9.212;2022-08-21T03:35:57;14.73;;;4.23;;
286;SDS011;127;48.770;9.212;2022-08-21T03:38:28;9.53;;;4.10;;
286;SDS011;127;48.770;9.212;2022-08-21T03:40:59;11.63;;;4.17;;
286;SDS011;127;48.770;9.212;2022-08-21T03:43:32;6.57;;;3.70;;
286;SDS011;127;48.770;9.212;2022-08-21T03:46:01;11.17;;;4.17;;
286;SDS011;127;48.770;9.212;2022-08-21T03:48:33;11.37;;;4.70;;
286;SDS011;127;48.770;9.212;2022-08-21T03:51:09;5.97;;;4.43;;
286;SDS011;127;48.770;9.212;2022-08-21T03:53:38;13.77;;;4.10;;
286;SDS011;127;48.770;9.212;2022-08-21T03:56:07;7.03;;;4.13;;
286;SDS011;127;48.770;9.212;2022-08-21T03:58:39;10.93;;;3.80;;
286;SDS011;127;48.770;9.212;2022-08-21T04:01:07;9.33;;;4.30;;
286;SDS011;127;48.770;9.212;2022-08-21T04:03:36;8.73;;;4.50;;
286;SDS011;127;48.770;9.212;2022-08-21T04:06:08;5.60;;;3.73;;
286;SDS011;127;48.770;9.212;2022-08-21T04:08:40;6.13;;;3.97;;
286;SDS011;127;48.770;9.212;2022-08-21T04:11:10;11.40;;;4.53;;
286;SDS011;127;48.770;9.212;2022-08-21T04:13:42;9.53;;;4.47;;
286;SDS011;127;48.770;9.212;2022-08-21T04:16:11;8.83;;;4.53;;
286;SDS011;127;48.770;9.212;2022-08-21T04:18:40;8.30;;;4.17;;
286;SDS011;127;48.770;9.212;2022-08-21T04:21:10;7.67;;;3.73;;
286;SDS011;127;48.770;9.212;2022-08-21T04:23:42;8.53;;;3.80;;
286;SDS011;127;48.770;9.212;2022-08-21T04:26:14;11.53;;;3.93;;
286;SDS011;127;48.770;9.212;2022-08-21T04:28:45;7.40;;;4.03;;
286;SDS011;127;48.770;9.212;2022-08-21T04:31:17;7.70;;;4.20;;
286;SDS011;127;48.770;9.212;2022-08-21T04:33:54;8.70;;;4.77;;
286;SDS011;127;48.770;9.212;2022-08-21T04:36:24;13.97;;;4.87;;
286;SDS011;127;48.770;9.212;2022-08-21T04:38:52;6.90;;;3.50;;
286;SDS011;127;48.770;9.212;2022-08-21T04:41:27;7.77;;;4.03;;
286;SDS011;127;48.770;9.212;2022-08-21T04:43:58;10.07;;;3.93;;
286;SDS011;127;48.770;9.212;2022-08-21T04:46:27;9.43;;;4.23;;
286;SDS011;127;48.770;9.212;2022-08-21T04:48:56;9.13;;;4.13;;
286;SDS011;127;48.770;9.212;2022-08-21T04:51:27;8.50;;;4.07;;
286;SDS011;127;48.770;9.212;2022-08-21T04:53:59;11.40;;;4.50;;
286;SDS011;127;48.770;9.212;2022-08-21T04:56:31;8.20;;;4.10;;
286;SDS011;127;48.770;9.212;2022-08-21T04:59:10;5.33;;;4.03;;
286;SDS011;127;48.770;9.212;2022-08-21T05:01:44;16.97;;;4.43;;
286;SDS011;127;48.770;9.212;2022-08-21T05:04:18;14.33;;;4.73;;
286;SDS011;127;48.770;9.212;2022-08-21T05:06:49;9.97;;;4.40;;
286;SDS011;127;48.770;9.212;2022-08-21T05:09:21;8.80;;;4.10;;
286;SDS011;127;48.770;9.212;2022-08-21T05:11:51;9.90;;;4.63;;
286;SDS011;127;48.770;9.212;2022-08-21T05:14:22;4.90;;;3.73;;
286;SDS011;127;48.770;9.212;2022-08-21T05:16:54;10.33;;;4.07;;
286;SDS011;127;48.770;9.212;2022-08-21T05:19:23;10.60;;;4.60;;
286;SDS011;127;48.770;9.212;2022-08-21T05:21:53;8.03;;;4.53;;
286;SDS011;127;48.770;9.212;2022-08-21T05:24:22;5.00;;;4.07;;
286;SDS011;127;48.770;9.212;2022-08-21T05:26:51;11.00;;;5.03;;
286;SDS011;127;48.770;9.212;2022-08-21T05:29:22;6.43;;;4.13;;
286;SDS011;127;48.770;9.212;2022-08-21T05:31:57;10.00;;;4.03;;
286;SDS011;127;48.770;9.212;2022-08-21T05:34:25;9.90;;;4.43;;
286;SDS011;127;48.770;9.212;2022-08-21T05:36:55;8.17;;;4.20;;
286;SDS011;127;48.770;9.212;2022-08-21T05:39:24;8.53;;;4.77;;
286;SDS011;127;48.770;9.212;2022-08-21T05:41:53;8.17;;;4.80;;
286;SDS011;127;48.770;9.212;2022-08-21T05:44:24;8.87;;;4.27;;
286;SDS011;127;48.770;9.212;2022-08-21T05:47:01;7.13;;;4.20;;
286;SDS011;127;48.770;9.212;2022-08-21T05:49:31;7.37;;;4.63;;
286;SDS011;127;48.770;9.212;2022-08-21T05:52:00;7.00;;;3.97;;
286;SDS011;127;48.770;9.212;2022-08-21T05:54:29;17.20;;;4.83;;
286;SDS011;127;48.770;9.212;2022-08-21T05:56:58;7.27;;;4.10;;
286;SDS011;127;48.770;9.212;2022-08-21T05:59:30;12.47;;;5.30;;
286;SDS011;127;48.770;9.212;2022-08-21T06:01:58;8.10;;;4.33;;
286;SDS011;127;48.770;9.212;2022-08-21T06:04:30;9.13;;;4.07;;
286;SDS011;127;48.770;9.212;2022-08-21T06:07:03;7.70;;;3.90;;
286;SDS011;127;48.770;9.212;2022-08-21T06:09:32;9.40;;;4.20;;
286;SDS011;127;48.770;9.212;2022-08-21T06:12:04;6.60;;;4.40;;
286;SDS011;127;48.770;9.212;2022-08-21T06:14:37;10.10;;;3.73;;
286;SDS011;127;48.770;9.212;2022-08-21T06:17:10;14.90;;;3.77;;
286;SDS011;127;48.770;9.212;2022-08-21T06:19:40;10.10;;;4.30;;
286;SDS011;127;48.770;9.212;2022-08-21T06:22:12;7.97;;;4.27;;
286;SDS011;127;48.770;9.212;2022-08-21T06:24:41;7.67;;;3.60;;
286;SDS011;127;48.770;9.212;2022-08-21T06:27:09;10.30;;;3.80;;
286;SDS011;127;48.770;9.212;2022-08-21T06:29:41;7.47;;;4.17;;
286;SDS011;127;48.770;9.212;2022-08-21T06:32:10;7.40;;;4.07;;
286;SDS011;127;48.770;9.212;2022-08-21T06:34:40;9.47;;;4.27;;
286;SDS011;127;48.770;9.212;2022-08-21T06:37:12;7.20;;;3.90;;
286;SDS011;127;48.770;9.212;2022-08-21T06:39:41;11.40;;;4.60;;
286;SDS011;127;48.770;9.212;2022-08-21T06:42:13;10.03;;;4.20;;
286;SDS011;127;48.770;9.212;2022-08-21T06:44:45;6.63;;;4.20;;
286;SDS011;127;48.770;9.212;2022-08-21T06:47:14;10.47;;;4.40;;
286;SDS011;127;48.770;9.212;2022-08-21T06:49:45;10.57;;;4.10;;
286;SDS011;127;48.770;9.212;2022-08-21T06:52:13;10.40;;;3.90;;
286;SDS011;127;48.770;9.212;2022-08-21T06:54:42;16.20;;;5.10;;
286;SDS011;127;48.770;9.212;2022-08-21T06:57:11;12.13;;;4.00;;
286;SDS011;127;48.770;9.212;2022-08-21T06:59:47;14.70;;;4.40;;
286;SDS011;127;48.770;9.212;2022-08-21T07:02:16;9.73;;;4.20;;
286;SDS011;127;48.770;9.212;2022-08-21T07:04:44;13.70;;;5.67;;
286;SDS011;127;48.770;9.212;2022-08-21T07:07:13;8.60;;;4.00;;
286;SDS011;127;48.770;9.212;2022-08-21T07:09:42;7.97;;;3.77;;
286;SDS011;127;48.770;9.212;2022-08-21T07:12:11;10.93;;;4.23;;
286;SDS011;127;48.770;9.212;2022-08-21T07:14:43;7.20;;;3.77;;
286;SDS011;127;48.770;9.212;2022-08-21T07:17:15;11.03;;;4.80;;
286;SDS011;127;48.770;9.212;2022-08-21T07:19:46;9.57;;;3.90;;
286;SDS011;127;48.770;9.212;2022-08-21T07:22:17;9.40;;;4.60;;
286;SDS011;127;48.770;9.212;2022-08-21T07:24:49;11.83;;;4.23;;
286;SDS011;127;48.770;9.212;2022-08-21T07:27:17;10.53;;;4.53;;
286;SDS011;127;48.770;9.212;2022-08-21T07:29:49;15.03;;;4.37;;
286;SDS011;127;48.770;9.212;2022-08-21T07:32:18;7.03;;;3.80;;
286;SDS011;127;48.770;9.212;2022-08-21T07:34:50;9.13;;;4.53;;
286;SDS011;127;48.770;9.212;2022-08-21T07:37:19;9.07;;;4.00;;
286;SDS011;127;48.770;9.212;2022-08-21T07:39:47;10.47;;;4.70;;
286;SDS011;127;48.770;9.212;2022-08-21T07:42:16;12.37;;;5.10;;
286;SDS011;127;48.770;9.212;2022-08-21T07:44:45;7.60;;;4.00;;
286;SDS011;127;48.770;9.212;2022-08-21T07:47:16;9.47;;;4.97;;
286;SDS011;127;48.770;9.212;2022-08-21T07:49:46;9.93;;;3.90;;
286;SDS011;127;48.770;9.212;2022-08-21T07:52:15;12.03;;;4.40;;
286;SDS011;127;48.770;9.212;2022-08-21T07:54:45;14.07;;;4.57;;
286;SDS011;127;48.770;9.212;2022-08-21T07:57:14;8.53;;;3.83;;
286;SDS011;127;48.770;9.212;2022-08-21T07:59:43;4.23;;;3.30;;
286;SDS011;127;48.770;9.212;2022-08-21T08:05:14;16.30;;;5.00;;
286;SDS011;127;48.770;9.212;2022-08-21T08:07:45;18.73;;;5.20;;
286;SDS011;127;48.770;9.212;2022-08-21T08:10:14;7.83;;;4.53;;
286;SDS011;127;48.770;9.212;2022-08-21T08:12:43;8.80;;;4.10;;
286;SDS011;127;48.770;9.212;2022-08-21T08:15:14;9.30;;;3.93;;
286;SDS011;127;48.770;9.212;2022-08-21T08:17:47;8.10;;;4.50;;
286;SDS011;127;48.770;9.212;2022-08-21T08:20:18;10.90;;;4.03;;
286;SDS011;127;48.770;9.212;2022-08-21T08:22:48;6.57;;;3.50;;
286;SDS011;127;48.770;9.212;2022-08-21T08:25:17;11.03;;;4.40;;
286;SDS011;127;48.770;9.212;2022-08-21T08:27:47;6.80;;;3.73;;
286;SDS011;127;48.770;9.212;2022-08-21T08:30:17;8.87;;;4.17;;
286;SDS011;127;48.770;9.212;2022-08-21T08:35:47;10.40;;;4.20;;
286;SDS011;127;48.770;9.212;2022-08-21T08:38:20;9.87;;;4.23;;
286;SDS011;127;48.770;9.212;2022-08-21T08:40:52;10.60;;;3.50;;
286;SDS011;127;48.770;9.212;2022-08-21T08:43:37;6.53;;;3.50;;
286;SDS011;127;48.770;9.212;2022-08-21T08:46:11;10.20;;;4.20;;
286;SDS011;127;48.770;9.212;2022-08-21T08:48:47;9.43;;;4.40;;
286;SDS011;127;48.770;9.212;2022-08-21T08:51:21;14.53;;;4.17;;
286;SDS011;127;48.770;9.212;2022-08-21T08:54:04;10.17;;;4.57;;
286;SDS011;127;48.770;9.212;2022-08-21T08:56:37;8.03;;;4.20;;
286;SDS011;127;48.770;9.212;2022-08-21T08:59:08;9.47;;;4.33;;
286;SDS011;127;48.770;9.212;2022-08-21T09:01:42;4.97;;;3.63;;
286;SDS011;127;48.770;9.212;2022-08-21T09:04:13;7.67;;;3.50;;
286;SDS011;127;48.770;9.212;2022-08-21T09:06:58;6.57;;;4.00;;
286;SDS011;127;48.770;9.212;2022-08-21T09:09:44;8.23;;;4.10;;
286;SDS011;127;48.770;9.212;2022-08-21T09:12:25;11.20;;;5.47;;
286;SDS011;127;48.770;9.212;2022-08-21T09:15:03;9.57;;;5.00;;
286;SDS011;127;48.770;9.212;2022-08-21T09:17:53;9.20;;;4.73;;
286;SDS011;127;48.770;9.212;2022-08-21T09:20:36;9.60;;;4.80;;
286;SDS011;127;48.770;9.212;2022-08-21T09:23:16;10.20;;;4.17;;
286;SDS011;127;48.770;9.212;2022-08-21T09:25:55;10.70;;;4.20;;
286;SDS011;127;48.770;9.212;2022-08-21T09:28:31;10.17;;;4.30;;
286;SDS011;127;48.770;9.212;2022-08-21T09:31:02;11.63;;;4.67;;
286;SDS011;127;48.770;9.212;2022-08-21T09:33:34;11.23;;;3.57;;
286;SDS011;127;48.770;9.212;2022-08-21T09:36:05;10.90;;;3.70;;
286;SDS011;127;48.770;9.212;2022-08-21T09:38:35;10.57;;;4.30;;
286;SDS011;127;48.770;9.212;2022-08-21T09:41:06;8.87;;;3.90;;
286;SDS011;127;48.770;9.212;2022-08-21T09:43:37;9.83;;;4.53;;
286;SDS011;127;48.770;9.212;2022-08-21T09:46:07;7.60;;;4.07;;
286;SDS011;127;48.770;9.212;2022-08-21T09:48:42;8.37;;;4.10;;
286;SDS011;127;48.770;9.212;2022-08-21T09:51:17;9.13;;;4.37;;
286;SDS011;127;48.770;9.212;2022-08-21T09:53:49;14.73;;;4.70;;
286;SDS011;127;48.770;9.212;2022-08-21T09:56:25;10.00;;;4.50;;
286;SDS011;127;48.770;9.212;2022-08-21T09:59:15;8.83;;;4.00;;
286;SDS011;127;48.770;9.212;2022-08-21T10:01:48;8.30;;;4.03;;
286;SDS011;127;48.770;9.212;2022-08-21T10:04:19;14.53;;;4.73;;
286;SDS011;127;48.770;9.212;2022-08-21T10:06:53;11.20;;;4.70;;
286;SDS011;127;48.770;9.212;2022-08-21T10:09:22;11.83;;;4.40;;
286;SDS011;127;48.770;9.212;2022-08-21T10:11:56;7.23;;;4.50;;
286;SDS011;127;48.770;9.212;2022-08-21T10:14:40;9.37;;;4.40;;
286;SDS011;127;48.770;9.212;2022-08-21T10:17:20;8.40;;;4.07;;
286;SDS011;127;48.770;9.212;2022-08-21T10:20:03;8.17;;;3.60;;
286;SDS011;127;48.770;9.212;2022-08-21T10:22:41;10.00;;;4.50;;
286;SDS011;127;48.770;9.212;2022-08-21T10:25:16;10.40;;;4.40;;
286;SDS011;127;48.770;9.212;2022-08-21T10:27:51;7.10;;;4.20;;
286;SDS011;127;48.770;9.212;2022-08-21T10:30:32;9.30;;;4.23;;
286;SDS011;127;48.770;9.212;2022-08-21T10:36:06;7.53;;;3.93;;
286;SDS011;127;48.770;9.212;2022-08-21T10:41:36;12.83;;;4.33;;
286;SDS011;127;48.770;9.212;2022-08-21T10:44:15;8.50;;;4.30;;
286;SDS011;127;48.770;9.212;2022-08-21T10:46:53;7.23;;;3.83;;
286;SDS011;127;48.770;9.212;2022-08-21T10:49:31;11.67;;;4.77;;
286;SDS011;127;48.770;9.212;2022-08-21T10:52:16;10.90;;;4.77;;
286;SDS011;127;48.770;9.212;2022-08-21T10:55:00;10.77;;;4.40;;
286;SDS011;127;48.770;9.212;2022-08-21T10:57:40;12.37;;;5.10;;
286;SDS011;127;48.770;9.212;2022-08-21T11:00:14;9.77;;;4.50;;
286;SDS011;127;48.770;9.212;2022-08-21T11:02:47;10.83;;;4.70;;
286;SDS011;127;48.770;9.212;2022-08-21T11:05:21;8.50;;;4.53;;
286;SDS011;127;48.770;9.212;2022-08-21T11:07:56;11.97;;;4.40;;
286;SDS011;127;48.770;9.212;2022-08-21T11:10:34;11.73;;;5.43;;
286;SDS011;127;48.770;9.212;2022-08-21T11:13:11;7.00;;;4.23;;
286;SDS011;127;48.770;9.212;2022-08-21T11:15:48;9.93;;;4.57;;
286;SDS011;127;48.770;9.212;2022-08-21T11:18:24;7.73;;;4.10;;
286;SDS011;127;48.770;9.212;2022-08-21T11:21:01;9.57;;;4.10;;
286;SDS011;127;48.770;9.212;2022-08-21T11:23:38;16.53;;;4.90;;
286;SDS011;127;48.770;9.212;2022-08-21T11:26:13;11.93;;;4.47;;
286;SDS011;127;48.770;9.212;2022-08-21T11:28:47;12.40;;;5.07;;
286;SDS011;127;48.770;9.212;2022-08-21T11:31:25;7.23;;;3.80;;
286;SDS011;127;48.770;9.212;2022-08-21T11:34:07;6.27;;;3.77;;
286;SDS011;127;48.770;9.212;2022-08-21T11:36:51;14.20;;;4.37;;
286;SDS011;127;48.770;9.212;2022-08-21T11:39:28;9.13;;;4.40;;
286;SDS011;127;48.770;9.212;2022-08-21T11:42:11;10.20;;;4.27;;
286;SDS011;127;48.770;9.212;2022-08-21T11:45:01;8.40;;;3.60;;
286;SDS011;127;48.770;9.212;2022-08-21T11:47:45;10.80;;;4.57;;
286;SDS011;127;48.770;9.212;2022-08-21T11:50:23;8.23;;;4.07;;
286;SDS011;127;48.770;9.212;2022-08-21T11:52:56;7.83;;;4.17;;
286;SDS011;127;48.770;9.212;2022-08-21T11:55:32;8.30;;;3.87;;
286;SDS011;127;48.770;9.212;2022-08-21T11:58:09;6.97;;;3.90;;
286;SDS011;127;48.770;9.212;2022-08-21T12:00:45;11.60;;;4.07;;
286;SDS011;127;48.770;9.212;2022-08-21T12:03:21;7.30;;;3.77;;
286;SDS011;127;48.770;9.212;2022-08-21T12:05:55;8.17;;;4.43;;
286;SDS011;127;48.770;9.212;2022-08-21T12:08:30;7.90;;;4.00;;
286;SDS011;127;48.770;9.212;2022-08-21T12:11:03;6.03;;;3.70;;
286;SDS011;127;48.770;9.212;2022-08-21T12:13:37;6.47;;;4.07;;
286;SDS011;127;48.770;9.212;2022-08-21T12:16:08;8.63;;;4.60;;
286;SDS011;127;48.770;9.212;2022-08-21T12:18:39;6.53;;;3.10;;
286;SDS011;127;48.770;9.212;2022-08-21T12:21:22;8.00;;;3.93;;
286;SDS011;127;48.770;9.212;2022-08-21T12:24:04;6.00;;;4.13;;
286;SDS011;127;48.770;9.212;2022-08-21T12:26:48;7.63;;;4.10;;
286;SDS011;127;48.770;9.212;2022-08-21T12:29:23;10.37;;;4.60;;
286;SDS011;127;48.770;9.212;2022-08-21T12:31:57;8.13;;;4.03;;
286;SDS011;127;48.770;9.212;2022-08-21T12:34:32;10.17;;;4.33;;
286;SDS011;127;48.770;9.212;2022-08-21T12:37:05;9.37;;;3.70;;
286;SDS011;127;48.770;9.212;2022-08-21T12:39:43;8.23;;;3.80;;
286;SDS011;127;48.770;9.212;2022-08-21T12:42:16;10.83;;;4.27;;
286;SDS011;127;48.770;9.212;2022-08-21T12:44:49;4.90;;;3.47;;
286;SDS011;127;48.770;9.212;2022-08-21T12:47:24;7.30;;;4.33;;
286;SDS011;127;48.770;9.212;2022-08-21T12:49:59;14.30;;;4.13;;
286;SDS011;127;48.770;9.212;2022-08-21T12:52:32;8.93;;;3.73;;
286;SDS011;127;48.770;9.212;2022-08-21T12:55:02;7.33;;;4.10;;
286;SDS011;127;48.770;9.212;2022-08-21T12:57:35;7.23;;;3.70;;
286;SDS011;127;48.770;9.212;2022-08-21T13:00:08;9.47;;;4.67;;
286;SDS011;127;48.770;9.212;2022-08-21T13:02:43;19.73;;;4.10;;
286;SDS011;127;48.770;9.212;2022-08-21T13:05:18;8.83;;;3.10;;
286;SDS011;127;48.770;9.212;2022-08-21T13:07:57;12.93;;;4.07;;
286;SDS011;127;48.770;9.212;2022-08-21T13:10:27;8.87;;;4.20;;
286;SDS011;127;48.770;9.212;2022-08-21T13:12:58;7.33;;;4.07;;
286;SDS011;127;48.770;9.212;2022-08-21T13:15:33;12.73;;;4.07;;
286;SDS011;127;48.770;9.212;2022-08-21T13:18:05;8.40;;;4.40;;
286;SDS011;127;48.770;9.212;2022-08-21T13:20:35;6.40;;;3.70;;
286;SDS011;127;48.770;9.212;2022-08-21T13:23:07;9.50;;;3.70;;
286;SDS011;127;48.770;9.212;2022-08-21T13:25:48;11.73;;;4.27;;
286;SDS011;127;48.770;9.212;2022-08-21T13:28:17;8.70;;;4.03;;
286;SDS011;127;48.770;9.212;2022-08-21T13:30:49;7.50;;;4.00;;
286;SDS011;127;48.770;9.212;2022-08-21T13:33:22;5.57;;;3.70;;
286;SDS011;127;48.770;9.212;2022-08-21T13:35:57;6.53;;;3.63;;
286;SDS011;127;48.770;9.212;2022-08-21T13:38:31;11.03;;;4.90;;
286;SDS011;127;48.770;9.212;2022-08-21T13:41:04;9.70;;;4.57;;
286;SDS011;127;48.770;9.212;2022-08-21T13:43:56;8.10;;;3.77;;
286;SDS011;127;48.770;9.212;2022-08-21T13:46:31;12.17;;;4.07;;
286;SDS011;127;48.770;9.212;2022-08-21T13:49:03;7.80;;;3.73;;
286;SDS011;127;48.770;9.212;2022-08-21T13:51:35;13.57;;;4.27;;
286;SDS011;127;48.770;9.212;2022-08-21T13:54:12;8.57;;;4.33;;
286;SDS011;127;48.770;9.212;2022-08-21T13:56:43;12.97;;;4.37;;
286;SDS011;127;48.770;9.212;2022-08-21T13:59:22;19.50;;;4.60;;
286;SDS011;127;48.770;9.212;2022-08-21T14:01:57;9.57;;;3.83;;
286;SDS011;127;48.770;9.212;2022-08-21T14:04:31;7.63;;;4.10;;
286;SDS011;127;48.770;9.212;2022-08-21T14:07:03;14.43;;;4.87;;
286;SDS011;127;48.770;9.212;2022-08-21T14:09:43;9.03;;;3.80;;
286;SDS011;127;48.770;9.212;2022-08-21T14:12:14;8.47;;;3.83;;
286;SDS011;127;48.770;9.212;2022-08-21T14:14:45;9.20;;;4.50;;
286;SDS011;127;48.770;9.212;2022-08-21T14:17:26;8.03;;;3.87;;
286;SDS011;127;48.770;9.212;2022-08-21T14:20:02;9.80;;;3.97;;
286;SDS011;127;48.770;9.212;2022-08-21T14:22:38;11.90;;;4.00;;
286;SDS011;127;48.770;9.212;2022-08-21T14:25:10;6.73;;;3.47;;
286;SDS011;127;48.770;9.212;2022-08-21T14:27:42;9.63;;;3.80;;
286;SDS011;127;48.770;9.212;2022-08-21T14:30:16;7.53;;;4.30;;
286;SDS011;127;48.770;9.212;2022-08-21T14:32:55;8.00;;;4.23;;
286;SDS011;127;48.770;9.212;2022-08-21T14:35:26;6.33;;;3.80;;
286;SDS011;127;48.770;9.212;2022-08-21T14:37:55;5.97;;;3.57;;
286;SDS011;127;48.770;9.212;2022-08-21T14:40:24;10.10;;;4.47;;
286;SDS011;127;48.770;9.212;2022-08-21T14:42:53;12.53;;;4.60;;
286;SDS011;127;48.770;9.212;2022-08-21T14:45:25;8.13;;;3.50;;
286;SDS011;127;48.770;9.212;2022-08-21T14:48:02;9.40;;;3.90;;
286;SDS011;127;48.770;9.212;2022-08-21T14:50:31;8.30;;;3.80;;
286;SDS011;127;48.770;9.212;2022-08-21T14:53:00;8.33;;;4.27;;
286;SDS011;127;48.770;9.212;2022-08-21T14:55:29;6.73;;;3.60;;
286;SDS011;127;48.770;9.212;2022-08-21T14:58:19;7.73;;;3.90;;
286;SDS011;127;48.770;9.212;2022-08-21T15:00:51;8.43;;;4.20;;
286;SDS011;127;48.770;9.212;2022-08-21T15:03:25;9.60;;;4.10;;
286;SDS011;127;48.770;9.212;2022-08-21T15:05:56;9.20;;;4.50;;
286;SDS011;127;48.770;9.212;2022-08-21T15:08:27;7.40;;;3.83;;
286;SDS011;127;48.770;9.212;2022-08-21T15:10:55;7.73;;;4.13;;
286;SDS011;127;48.770;9.212;2022-08-21T15:13:24;9.33;;;4.10;;
286;SDS011;127;48.770;9.212;2022-08-21T15:15:53;8.60;;;4.10;;
286;SDS011;127;48.770;9.212;2022-08-21T15:18:28;8.83;;;4.00;;
286;SDS011;127;48.770;9.212;2022-08-21T15:20:58;6.97;;;4.23;;
286;SDS011;127;48.770;9.212;2022-08-21T15:23:26;9.17;;;4.47;;
286;SDS011;127;48.770;9.212;2022-08-21T15:25:55;10.17;;;4.63;;
286;SDS011;127;48.770;9.212;2022-08-21T15:28:27;11.27;;;3.97;;
286;SDS011;127;48.770;9.212;2022-08-21T15:30:56;5.70;;;3.73;;
286;SDS011;127;48.770;9.212;2022-08-21T15:33:30;7.30;;;3.47;;
286;SDS011;127;48.770;9.212;2022-08-21T15:35:58;8.70;;;4.20;;
286;SDS011;127;48.770;9.212;2022-08-21T15:38:27;7.33;;;3.37;;
286;SDS011;127;48.770;9.212;2022-08-21T15:40:56;7.80;;;4.13;;
286;SDS011;127;48.770;9.212;2022-08-21T15:43:25;6.40;;;4.00;;
286;SDS011;127;48.770;9.212;2022-08-21T15:45:59;9.77;;;4.00;;
286;SDS011;127;48.770;9.212;2022-08-21T15:48:33;10.20;;;4.00;;
286;SDS011;127;48.770;9.212;2022-08-21T15:51:02;9.33;;;3.90;;
286;SDS011;127;48.770;9.212;2022-08-21T15:53:31;11.73;;;3.83;;
286;SDS011;127;48.770;9.212;2022-08-21T15:56:03;8.20;;;3.57;;
286;SDS011;127;48.770;9.212;2022-08-21T15:58:33;6.60;;;3.50;;
286;SDS011;127;48.770;9.212;2022-08-21T16:01:01;4.13;;;3.30;;
286;SDS011;127;48.770;9.212;2022-08-21T16:03:33;11.57;;;4.07;;
286;SDS011;127;48.770;9.212;2022-08-21T16:06:01;9.57;;;5.33;;
286;SDS011;127;48.770;9.212;2022-08-21T16:08:30;7.90;;;5.30;;
286;SDS011;127;48.770;9.212;2022-08-21T16:11:01;7.07;;;4.30;;
286;SDS011;127;48.770;9.212;2022-08-21T16:13:36;8.33;;;4.40;;
286;SDS011;127;48.770;9.212;2022-08-21T16:16:12;7.13;;;4.50;;
286;SDS011;127;48.770;9.212;2022-08-21T16:18:46;14.10;;;5.33;;
286;SDS011;127;48.770;9.212;2022-08-21T16:24:00;8.03;;;4.00;;
286;SDS011;127;48.770;9.212;2022-08-21T16:26:28;7.20;;;3.97;;
286;SDS011;127;48.770;9.212;2022-08-21T16:28:58;7.50;;;5.17;;